Time;durP1;ratioP1;P1;durP2;ratioP2;P2;SDS_P1;SDS_P2;PMS_P1;PMS_P2;Temp;Humidity;BMP_temperature;BMP_pressure;BME280_temperature;BME280_humidity;BME280_pressure;Samples;Min_cycle;Max_cycle;Signal;HPM_P1;HPM_P2
2022/06/04 00:00:45;;;;;;;8.98;6.07;;;;;;;21.82;nan;-24423.41;5053716;28;20190;-56
2022/06/04 00:03:11;;;;;;;7.95;5.50;;;;;;;21.87;nan;-24424.78;5053749;28;20499;-56
2022/06/04 00:05:39;;;;;;;9.05;6.00;;;;;;;21.63;nan;-24418.13;5053607;28;20178;-55
2022/06/04 00:08:06;;;;;;;9.73;6.60;;;;;;;21.59;nan;-24417.03;5053855;28;20266;-56
2022/06/04 00:16:04;;;;;;;10.63;6.45;;;;;;;21.29;nan;-24408.84;5055376;28;20180;-56
2022/06/04 00:18:30;;;;;;;10.80;6.40;;;;;;;21.21;nan;-24406.50;5053231;28;20228;-56
2022/06/04 00:20:56;;;;;;;10.52;6.68;;;;;;;20.97;nan;-24399.97;5053381;28;20182;-56
2022/06/04 00:23:22;;;;;;;14.50;6.70;;;;;;;20.36;nan;-24383.19;5053504;28;20174;-56
2022/06/04 00:25:51;;;;;;;8.95;5.70;;;;;;;21.48;nan;-24413.97;5052858;28;20573;-56
2022/06/04 00:28:19;;;;;;;9.05;5.57;;;;;;;20.56;nan;-24388.75;5053186;28;20175;-56
2022/06/04 00:30:45;;;;;;;9.63;5.97;;;;;;;20.97;nan;-24400.13;5053005;28;20572;-55
2022/06/04 00:33:12;;;;;;;11.13;6.72;;;;;;;21.10;nan;-24403.56;5053055;28;20253;-56
2022/06/04 00:35:37;;;;;;;9.68;6.35;;;;;;;20.85;nan;-24396.66;5053154;28;20179;-56
2022/06/04 00:38:05;;;;;;;9.43;6.13;;;;;;;21.10;nan;-24403.72;5052889;28;20630;-56
2022/06/04 00:40:33;;;;;;;9.68;6.43;;;;;;;20.96;nan;-24399.84;5053127;28;20177;-56
2022/06/04 00:42:59;;;;;;;10.00;6.22;;;;;;;20.87;nan;-24397.19;5053164;28;20166;-56
2022/06/04 00:45:36;;;;;;;11.13;6.68;;;;;;;20.89;nan;-24397.75;5053065;28;20668;-56
2022/06/04 00:48:07;;;;;;;9.05;6.22;;;;;;;20.97;nan;-24400.13;5053027;28;20170;-56
2022/06/04 00:50:38;;;;;;;9.88;5.97;;;;;;;20.78;nan;-24394.69;5052838;28;20552;-57
2022/06/04 00:53:07;;;;;;;9.63;6.10;;;;;;;20.74;nan;-24393.72;5053092;28;20162;-56
2022/06/04 00:55:49;;;;;;;9.50;6.22;;;;;;;20.83;nan;-24396.22;5052400;28;20657;-56
2022/06/04 00:58:32;;;;;;;9.32;5.85;;;;;;;20.99;nan;-24400.53;5052790;28;20190;-56
2022/06/04 01:01:09;;;;;;;9.88;6.22;;;;;;;20.70;nan;-24392.63;5052316;28;20235;-56
2022/06/04 01:03:50;;;;;;;8.63;5.68;;;;;;;20.85;nan;-24396.66;5052816;28;20216;-56
2022/06/04 01:06:42;;;;;;;11.38;6.40;;;;;;;20.83;nan;-24396.22;5052870;28;20205;-56
2022/06/04 01:09:29;;;;;;;9.00;6.35;;;;;;;20.78;nan;-24394.69;5052575;28;20186;-56
2022/06/04 01:12:09;;;;;;;9.50;6.32;;;;;;;20.77;nan;-24394.56;5052764;28;20245;-55
2022/06/04 01:15:00;;;;;;;10.38;6.60;;;;;;;20.60;nan;-24389.97;5052387;28;20174;-56
2022/06/04 01:18:03;;;;;;;10.63;6.70;;;;;;;20.41;nan;-24384.56;5052531;28;20565;-56
2022/06/04 01:20:38;;;;;;;10.50;6.22;;;;;;;20.13;nan;-24377.06;5052428;28;20249;-56
2022/06/04 01:23:32;;;;;;;14.27;7.30;;;;;;;20.22;nan;-24379.56;5052457;28;20219;-56
2022/06/04 01:26:19;;;;;;;11.13;6.20;;;;;;;20.13;nan;-24377.06;5051730;28;20638;-56
2022/06/04 01:28:59;;;;;;;9.43;6.20;;;;;;;20.15;nan;-24377.47;5057596;28;20177;-56
2022/06/04 01:31:30;;;;;;;10.18;6.85;;;;;;;20.05;nan;-24374.84;5050626;28;20190;-56
2022/06/04 01:34:01;;;;;;;9.77;6.60;;;;;;;20.44;nan;-24385.53;5051836;28;20285;-55
2022/06/04 01:36:39;;;;;;;11.05;6.75;;;;;;;20.26;nan;-24380.69;5051602;28;20657;-56
2022/06/04 01:39:13;;;;;;;11.15;6.88;;;;;;;20.08;nan;-24375.53;5052291;28;20229;-56
2022/06/04 01:41:47;;;;;;;8.50;5.78;;;;;;;19.99;nan;-24373.03;5052186;28;20162;-56
2022/06/04 01:44:32;;;;;;;9.55;6.05;;;;;;;20.05;nan;-24374.72;5051902;28;20613;-55
2022/06/04 01:47:01;;;;;;;10.15;6.45;;;;;;;19.66;nan;-24364.16;5051375;28;20170;-56
2022/06/04 01:49:42;;;;;;;9.25;6.40;;;;;;;19.83;nan;-24368.88;5051564;28;20174;-56
2022/06/04 01:52:17;;;;;;;8.52;6.05;;;;;;;19.65;nan;-24363.88;5051570;28;20178;-56
2022/06/04 01:54:57;;;;;;;11.07;6.75;;;;;;;19.69;nan;-24364.84;5056778;28;20178;-56
2022/06/04 01:57:46;;;;;;;10.38;6.13;;;;;;;19.84;nan;-24369.16;5051174;28;20197;-56
2022/06/04 02:00:27;;;;;;;9.40;6.10;;;;;;;19.71;nan;-24365.41;5051560;28;20224;-56
2022/06/04 02:03:01;;;;;;;11.60;6.47;;;;;;;19.65;nan;-24363.72;5047846;28;20174;-56
2022/06/04 02:05:49;;;;;;;12.38;6.78;;;;;;;19.63;nan;-24363.16;5060351;28;20587;-56
2022/06/04 02:08:23;;;;;;;9.73;6.30;;;;;;;19.40;nan;-24357.06;5050482;28;20232;-56
2022/06/04 02:10:58;;;;;;;9.13;6.00;;;;;;;19.60;nan;-24362.47;5050083;28;20167;-56
2022/06/04 02:13:24;;;;;;;11.25;6.40;;;;;;;19.56;nan;-24361.22;5051191;28;20182;-55
2022/06/04 02:16:08;;;;;;;9.68;6.32;;;;;;;19.60;nan;-24362.34;5051131;28;20185;-55
2022/06/04 02:18:34;;;;;;;8.13;6.00;;;;;;;19.55;nan;-24361.09;5050338;28;20194;-56
2022/06/04 02:21:01;;;;;;;9.18;5.70;;;;;;;19.06;nan;-24347.44;5051761;28;20258;-55
2022/06/04 02:23:29;;;;;;;9.60;6.18;;;;;;;19.40;nan;-24357.06;5051744;28;20265;-56
2022/06/04 02:25:54;;;;;;;10.13;6.03;;;;;;;19.13;nan;-24349.41;5051278;28;20202;-56
2022/06/04 02:28:20;;;;;;;7.68;5.65;;;;;;;19.42;nan;-24357.47;5051545;28;20201;-56
2022/06/04 02:31:10;;;;;;;10.63;6.07;;;;;;;19.38;nan;-24356.50;5050936;28;20257;-55
2022/06/04 02:34:29;;;;;;;10.20;6.22;;;;;;;19.51;nan;-24359.97;5051220;28;20672;-55
2022/06/04 02:37:08;;;;;;;10.40;6.53;;;;;;;19.45;nan;-24358.16;5028831;28;20179;-55
2022/06/04 02:39:42;;;;;;;8.50;5.65;;;;;;;19.38;nan;-24356.50;5032481;28;20175;-55
2022/06/04 02:42:29;;;;;;;11.30;6.63;;;;;;;19.05;nan;-24347.19;5048582;28;20209;-55
2022/06/04 02:45:00;;;;;;;10.55;6.40;;;;;;;19.31;nan;-24354.41;5037654;28;20369;-55
2022/06/04 02:47:38;;;;;;;9.52;6.53;;;;;;;19.50;nan;-24359.69;5055088;28;20680;-55
2022/06/04 02:50:20;;;;;;;9.68;6.20;;;;;;;19.59;nan;-24362.19;5055248;28;20182;-54
2022/06/04 02:52:47;;;;;;;10.30;6.47;;;;;;;19.54;nan;-24360.81;5055474;28;20201;-55
2022/06/04 02:55:16;;;;;;;13.32;6.35;;;;;;;19.10;nan;-24348.56;5055782;28;20313;-55
2022/06/04 02:57:47;;;;;;;10.82;5.68;;;;;;;19.63;nan;-24363.16;5058317;28;20210;-56
2022/06/04 03:00:17;;;;;;;12.48;6.25;;;;;;;19.53;nan;-24360.38;5059940;28;20183;-54
2022/06/04 03:02:43;;;;;;;9.05;6.10;;;;;;;19.76;nan;-24366.78;5054865;28;20764;-54
2022/06/04 03:05:13;;;;;;;9.98;6.55;;;;;;;20.06;nan;-24375.13;5054732;28;20325;-56
2022/06/04 03:07:42;;;;;;;9.77;6.10;;;;;;;20.38;nan;-24383.88;5053870;28;20657;-56
2022/06/04 03:10:13;;;;;;;10.95;5.65;;;;;;;20.71;nan;-24392.91;5053868;28;20638;-56
2022/06/04 03:12:38;;;;;;;13.23;6.95;;;;;;;20.91;nan;-24398.31;5054380;28;20563;-54
2022/06/04 03:15:04;;;;;;;14.35;6.28;;;;;;;21.39;nan;-24411.63;5059206;28;20182;-57
2022/06/04 03:17:30;;;;;;;10.32;6.22;;;;;;;21.93;nan;-24426.44;5060412;28;20197;-54
2022/06/04 03:19:55;;;;;;;9.32;5.85;;;;;;;22.33;nan;-24437.25;5063465;28;20245;-54
2022/06/04 03:22:21;;;;;;;10.20;5.75;;;;;;;23.20;nan;-24461.16;5061130;28;20181;-55
2022/06/04 03:24:46;;;;;;;9.07;5.50;;;;;;;23.55;nan;-24470.69;5058911;28;20175;-56
2022/06/04 03:27:12;;;;;;;8.32;5.35;;;;;;;24.31;nan;-24491.41;5061272;28;20581;-56
2022/06/04 03:29:37;;;;;;;11.07;5.78;;;;;;;24.59;nan;-24499.13;5058991;28;20579;-57
2022/06/04 03:32:03;;;;;;;7.97;5.53;;;;;;;25.55;nan;-24525.00;5059771;28;20569;-57
2022/06/04 03:34:29;;;;;;;6.90;5.15;;;;;;;25.99;nan;-24537.09;5057937;28;20182;-57
2022/06/04 03:36:54;;;;;;;10.70;5.97;;;;;;;26.36;nan;-24547.28;5058426;28;20178;-56
2022/06/04 03:39:20;;;;;;;10.35;5.95;;;;;;;27.10;nan;-24567.31;5060561;28;20178;-57
2022/06/04 03:41:45;;;;;;;9.98;6.25;;;;;;;27.30;nan;-24572.50;5058896;28;20224;-56
2022/06/04 03:44:11;;;;;;;8.73;5.57;;;;;;;27.83;nan;-24587.03;5060697;28;20206;-56
2022/06/04 03:46:37;;;;;;;7.47;5.30;;;;;;;28.19;nan;-24596.63;5058750;28;20269;-56
2022/06/04 03:49:03;;;;;;;7.53;5.28;;;;;;;28.28;nan;-24599.09;5059353;28;21276;-56
2022/06/04 03:51:29;;;;;;;7.10;5.20;;;;;;;28.55;nan;-24606.63;5056853;28;20170;-56
2022/06/04 03:53:55;;;;;;;9.32;5.00;;;;;;;29.44;nan;-24630.41;5058355;28;20189;-56
2022/06/04 03:56:22;;;;;;;7.72;5.50;;;;;;;30.04;nan;-24646.78;5061068;28;20352;-56
2022/06/04 03:59:25;;;;;;;10.60;5.45;;;;;;;30.64;nan;-24662.84;5058601;28;20278;-58
2022/06/04 04:01:54;;;;;;;6.57;4.82;;;;;;;30.96;nan;-24671.44;5050873;28;20190;-57
2022/06/04 04:04:20;;;;;;;7.60;5.15;;;;;;;31.62;nan;-24689.25;5060298;28;20249;-57
2022/06/04 04:06:45;;;;;;;11.90;5.95;;;;;;;31.58;nan;-24688.03;5054841;28;20190;-57
2022/06/04 04:09:11;;;;;;;7.85;5.55;;;;;;;31.88;nan;-24696.19;5060342;28;20662;-57
2022/06/04 04:11:37;;;;;;;8.98;5.72;;;;;;;32.01;nan;-24699.84;5055998;28;20186;-57
2022/06/04 04:14:02;;;;;;;8.30;5.25;;;;;;;31.93;nan;-24697.53;5054516;28;21034;-59
2022/06/04 04:16:28;;;;;;;8.88;5.72;;;;;;;32.15;nan;-24703.53;5060073;28;20710;-57
2022/06/04 04:18:53;;;;;;;8.38;5.05;;;;;;;32.03;nan;-24700.13;5055681;28;20202;-57
2022/06/04 04:21:21;;;;;;;7.72;5.22;;;;;;;32.27;nan;-24706.78;5055487;28;20204;-58
2022/06/04 04:23:46;;;;;;;7.78;4.93;;;;;;;32.92;nan;-24724.00;5053044;28;20185;-56
2022/06/04 04:26:13;;;;;;;9.10;5.75;;;;;;;32.49;nan;-24712.63;5059337;28;20719;-58
2022/06/04 04:28:40;;;;;;;7.95;5.13;;;;;;;32.68;nan;-24717.78;5055602;28;20189;-57
2022/06/04 04:31:18;;;;;;;10.00;5.75;;;;;;;33.11;nan;-24729.28;5057145;28;20569;-57
2022/06/04 04:33:43;;;;;;;7.53;5.47;;;;;;;33.67;nan;-24744.31;5059150;28;20182;-57
2022/06/04 04:36:09;;;;;;;7.90;5.43;;;;;;;32.95;nan;-24724.97;5057078;28;20182;-56
2022/06/04 04:38:35;;;;;;;8.77;5.45;;;;;;;33.04;nan;-24727.41;5055990;28;20210;-56
2022/06/04 04:41:01;;;;;;;10.77;5.20;;;;;;;32.54;nan;-24713.84;5057742;28;20178;-56
2022/06/04 04:43:27;;;;;;;7.32;5.80;;;;;;;32.28;nan;-24707.03;5054794;28;20174;-56
2022/06/04 04:46:07;;;;;;;11.85;5.72;;;;;;;32.47;nan;-24711.94;5059419;28;20269;-57
2022/06/04 04:48:33;;;;;;;8.20;5.22;;;;;;;32.62;nan;-24716.00;5055844;28;20174;-57
2022/06/04 04:50:59;;;;;;;7.55;5.45;;;;;;;32.62;nan;-24716.13;5058092;28;20192;-57
2022/06/04 04:53:24;;;;;;;7.28;5.30;;;;;;;31.54;nan;-24687.22;5054931;28;20185;-57
2022/06/04 04:55:50;;;;;;;7.03;5.40;;;;;;;32.90;nan;-24723.59;5057283;28;20304;-54
2022/06/04 04:58:15;;;;;;;6.15;4.88;;;;;;;32.42;nan;-24710.84;5058800;28;20201;-57
2022/06/04 05:00:42;;;;;;;7.80;5.65;;;;;;;31.94;nan;-24697.94;5057289;28;20557;-58
2022/06/04 05:03:08;;;;;;;7.20;5.20;;;;;;;31.80;nan;-24694.16;5050562;28;20664;-57
2022/06/04 05:05:33;;;;;;;9.30;5.60;;;;;;;31.96;nan;-24698.34;5056833;28;20235;-58
2022/06/04 05:07:59;;;;;;;7.75;5.70;;;;;;;31.98;nan;-24698.91;5058833;28;20305;-58
2022/06/04 05:10:25;;;;;;;7.95;5.57;;;;;;;32.04;nan;-24700.53;5058999;28;20652;-58
2022/06/04 05:12:52;;;;;;;7.22;5.38;;;;;;;31.38;nan;-24682.72;5056608;28;20629;-57
2022/06/04 05:15:19;;;;;;;8.45;5.05;;;;;;;31.38;nan;-24682.88;5053995;28;20657;-57
2022/06/04 05:17:45;;;;;;;6.53;5.10;;;;;;;31.12;nan;-24675.78;5058990;28;20280;-57
2022/06/04 05:20:11;;;;;;;6.43;4.97;;;;;;;31.36;nan;-24682.31;5055227;28;20283;-58
2022/06/04 05:22:36;;;;;;;10.40;5.03;;;;;;;31.00;nan;-24672.66;5056078;28;20177;-57
2022/06/04 05:25:03;;;;;;;7.88;5.47;;;;;;;31.10;nan;-24675.38;5054421;28;20174;-57
2022/06/04 05:27:29;;;;;;;7.40;5.18;;;;;;;31.28;nan;-24680.00;5057563;28;20640;-56
2022/06/04 05:29:54;;;;;;;7.45;5.13;;;;;;;31.29;nan;-24680.28;5055878;28;20223;-56
2022/06/04 05:32:20;;;;;;;7.72;5.40;;;;;;;31.62;nan;-24689.25;5054015;28;20185;-57
2022/06/04 05:34:45;;;;;;;9.00;5.80;;;;;;;31.04;nan;-24673.59;5056755;28;20745;-56
2022/06/04 05:37:11;;;;;;;6.43;5.43;;;;;;;30.77;nan;-24666.41;5057274;28;20212;-56
2022/06/04 05:39:36;;;;;;;9.27;5.18;;;;;;;30.61;nan;-24662.03;5054985;28;20178;-56
2022/06/04 05:42:04;;;;;;;7.72;5.45;;;;;;;30.61;nan;-24662.16;5056231;28;20287;-56
2022/06/04 05:44:30;;;;;;;6.35;4.95;;;;;;;29.64;nan;-24636.00;5056467;28;20648;-56
2022/06/04 05:46:56;;;;;;;6.78;5.07;;;;;;;29.12;nan;-24621.94;5054529;28;20965;-56
2022/06/04 05:49:21;;;;;;;6.88;5.07;;;;;;;28.82;nan;-24613.72;5054973;28;20178;-56
2022/06/04 05:51:48;;;;;;;8.82;5.28;;;;;;;28.28;nan;-24599.09;5056393;28;20184;-57
2022/06/04 05:54:14;;;;;;;6.38;4.95;;;;;;;27.99;nan;-24591.28;5055308;28;20269;-55
2022/06/04 05:56:42;;;;;;;7.65;5.45;;;;;;;27.53;nan;-24578.81;5054204;28;20233;-56
2022/06/04 05:59:15;;;;;;;8.43;5.35;;;;;;;27.38;nan;-24574.72;5054820;28;20218;-57
2022/06/04 06:01:42;;;;;;;8.75;5.43;;;;;;;27.42;nan;-24575.94;5053717;28;20240;-57
2022/06/04 06:04:09;;;;;;;8.40;5.13;;;;;;;27.14;nan;-24568.28;5054655;28;20216;-57
2022/06/04 06:06:38;;;;;;;6.85;5.05;;;;;;;26.78;nan;-24558.66;5055587;28;20285;-58
2022/06/04 06:09:06;;;;;;;7.22;5.22;;;;;;;27.30;nan;-24572.50;5054379;28;20244;-58
2022/06/04 06:11:32;;;;;;;9.05;5.72;;;;;;;27.26;nan;-24571.56;5055534;28;20224;-57
2022/06/04 06:13:58;;;;;;;7.95;5.15;;;;;;;27.11;nan;-24567.44;5059267;28;20677;-57
2022/06/04 06:16:28;;;;;;;7.78;5.45;;;;;;;27.43;nan;-24576.22;5059752;28;20178;-57
2022/06/04 06:18:55;;;;;;;7.95;5.15;;;;;;;27.47;nan;-24577.31;5060251;28;20209;-56
2022/06/04 06:21:23;;;;;;;7.93;5.30;;;;;;;27.73;nan;-24584.16;5059291;28;20183;-58
2022/06/04 06:23:50;;;;;;;7.65;5.60;;;;;;;27.63;nan;-24581.56;5057712;28;20188;-57
2022/06/04 06:26:25;;;;;;;7.78;5.68;;;;;;;27.77;nan;-24585.41;5055785;28;20174;-58
2022/06/04 06:28:52;;;;;;;9.27;4.85;;;;;;;27.79;nan;-24585.81;5068612;28;20239;-56
2022/06/04 06:31:26;;;;;;;6.45;4.95;;;;;;;27.52;nan;-24578.69;5058395;28;20186;-59
2022/06/04 06:34:01;;;;;;;7.72;5.40;;;;;;;27.55;nan;-24579.50;5051095;28;20223;-57
2022/06/04 06:36:28;;;;;;;9.23;5.10;;;;;;;27.86;nan;-24587.88;5054814;28;20173;-59
2022/06/04 06:38:54;;;;;;;7.38;5.13;;;;;;;28.00;nan;-24591.56;5061319;28;20245;-56
2022/06/04 06:41:23;;;;;;;10.93;5.00;;;;;;;28.22;nan;-24597.59;5055097;28;20182;-60
2022/06/04 06:43:50;;;;;;;8.10;5.60;;;;;;;28.32;nan;-24600.19;5054544;28;20194;-57
2022/06/04 06:46:22;;;;;;;7.43;5.15;;;;;;;28.55;nan;-24606.47;5054526;28;20173;-57
2022/06/04 06:48:51;;;;;;;8.50;5.35;;;;;;;28.49;nan;-24604.97;5047712;28;20178;-56
2022/06/04 06:51:21;;;;;;;7.00;5.00;;;;;;;28.58;nan;-24607.16;5054680;28;20170;-58
2022/06/04 06:53:47;;;;;;;7.25;4.88;;;;;;;28.28;nan;-24599.09;5054219;28;20183;-58
2022/06/04 06:56:18;;;;;;;6.20;4.50;;;;;;;28.47;nan;-24604.28;5054596;28;20617;-58
2022/06/04 06:58:44;;;;;;;8.27;5.15;;;;;;;28.63;nan;-24608.53;5054538;28;20568;-56
2022/06/04 07:01:11;;;;;;;6.72;4.82;;;;;;;28.75;nan;-24611.81;5054359;28;20175;-57
2022/06/04 07:03:37;;;;;;;10.63;5.07;;;;;;;28.58;nan;-24607.16;5054074;28;20523;-58
2022/06/04 07:06:04;;;;;;;6.75;4.57;;;;;;;28.84;nan;-24614.41;5054194;28;20258;-60
2022/06/04 07:08:29;;;;;;;7.22;4.68;;;;;;;28.76;nan;-24612.09;5054220;28;20700;-57
2022/06/04 07:10:55;;;;;;;8.52;5.10;;;;;;;29.03;nan;-24619.34;5054476;28;20254;-57
2022/06/04 07:13:20;;;;;;;9.23;5.32;;;;;;;29.06;nan;-24620.16;5054116;28;20579;-58
2022/06/04 07:15:46;;;;;;;8.48;4.80;;;;;;;28.91;nan;-24616.19;5054055;28;20176;-56
2022/06/04 07:18:12;;;;;;;7.18;4.40;;;;;;;28.75;nan;-24611.97;5053720;28;20203;-57
2022/06/04 07:20:40;;;;;;;8.68;4.40;;;;;;;29.29;nan;-24626.44;5054074;28;20166;-58
2022/06/04 07:23:06;;;;;;;7.38;4.90;;;;;;;29.04;nan;-24619.59;5053831;28;20601;-58
2022/06/04 07:25:32;;;;;;;6.80;5.28;;;;;;;29.31;nan;-24627.00;5052620;28;20162;-58
2022/06/04 07:27:58;;;;;;;10.73;4.68;;;;;;;29.20;nan;-24623.97;5054436;28;20162;-60
2022/06/04 07:30:24;;;;;;;5.93;4.47;;;;;;;29.56;nan;-24633.66;5052639;28;20183;-58
2022/06/04 07:32:49;;;;;;;7.22;4.85;;;;;;;29.65;nan;-24636.25;5055198;28;20178;-56
2022/06/04 07:35:15;;;;;;;7.18;5.18;;;;;;;29.87;nan;-24642.13;5054340;28;20181;-57
2022/06/04 07:37:41;;;;;;;7.97;5.00;;;;;;;29.90;nan;-24642.81;5054240;28;20189;-58
2022/06/04 07:40:07;;;;;;;7.05;4.55;;;;;;;30.12;nan;-24648.94;5054274;28;20193;-57
2022/06/04 07:42:33;;;;;;;7.72;4.60;;;;;;;30.43;nan;-24657.25;5054365;28;20256;-57
2022/06/04 07:44:58;;;;;;;7.95;4.90;;;;;;;30.39;nan;-24656.19;5054196;28;20202;-56
2022/06/04 07:47:24;;;;;;;7.45;5.40;;;;;;;30.24;nan;-24652.09;5053833;28;20170;-59
2022/06/04 07:49:50;;;;;;;6.35;4.63;;;;;;;30.34;nan;-24654.69;5054030;28;20188;-60
2022/06/04 07:52:15;;;;;;;6.15;4.57;;;;;;;30.58;nan;-24661.34;5054007;28;20197;-58
2022/06/04 07:54:41;;;;;;;5.28;4.32;;;;;;;30.87;nan;-24669.13;5053809;28;20260;-58
2022/06/04 07:57:06;;;;;;;6.55;4.47;;;;;;;31.05;nan;-24673.88;5054202;28;20260;-59
2022/06/04 07:59:32;;;;;;;7.90;4.78;;;;;;;30.91;nan;-24670.06;5053909;28;20172;-58
2022/06/04 08:01:57;;;;;;;8.38;4.60;;;;;;;31.22;nan;-24678.50;5054053;28;20174;-57
2022/06/04 08:04:23;;;;;;;5.78;4.30;;;;;;;31.31;nan;-24680.81;5053937;28;20633;-60
2022/06/04 08:06:48;;;;;;;6.20;4.50;;;;;;;30.72;nan;-24665.03;5053163;28;20170;-55
2022/06/04 08:09:13;;;;;;;7.75;4.82;;;;;;;30.71;nan;-24664.91;5054102;28;20643;-56
2022/06/04 08:11:39;;;;;;;6.53;4.63;;;;;;;31.28;nan;-24680.00;5053716;28;20178;-59
2022/06/04 08:14:22;;;;;;;6.43;4.90;;;;;;;31.51;nan;-24686.25;5054222;28;20170;-58
2022/06/04 08:17:00;;;;;;;6.25;4.60;;;;;;;31.72;nan;-24691.84;5053848;28;20215;-58
2022/06/04 08:19:29;;;;;;;5.70;4.07;;;;;;;31.94;nan;-24697.94;5054108;28;20188;-56
2022/06/04 08:21:55;;;;;;;8.48;4.32;;;;;;;31.66;nan;-24690.34;5053363;28;20189;-57
2022/06/04 08:24:22;;;;;;;6.38;4.05;;;;;;;32.00;nan;-24699.44;5053836;28;20170;-59
2022/06/04 08:26:56;;;;;;;8.77;4.50;;;;;;;31.97;nan;-24698.63;5053335;28;20212;-58
2022/06/04 08:29:22;;;;;;;6.15;3.67;;;;;;;32.37;nan;-24709.34;5053942;28;20254;-58
2022/06/04 08:31:48;;;;;;;5.45;4.03;;;;;;;32.46;nan;-24711.66;5053430;28;20261;-56
2022/06/04 08:34:13;;;;;;;6.35;4.45;;;;;;;31.88;nan;-24696.19;5053686;28;20287;-58
2022/06/04 08:36:41;;;;;;;4.15;3.45;;;;;;;32.22;nan;-24705.41;5053278;28;20170;-57
2022/06/04 08:39:08;;;;;;;4.63;3.85;;;;;;;31.07;nan;-24674.56;5052826;28;20284;-59
2022/06/04 08:41:46;;;;;;;5.15;3.92;;;;;;;31.40;nan;-24683.28;5052022;28;20245;-58
2022/06/04 08:44:18;;;;;;;7.60;4.97;;;;;;;31.24;nan;-24678.91;5052693;28;20169;-58
2022/06/04 08:47:00;;;;;;;5.63;3.92;;;;;;;30.99;nan;-24672.38;5052536;28;20167;-57
2022/06/04 08:49:51;;;;;;;4.90;3.90;;;;;;;30.47;nan;-24658.38;5052834;28;20154;-56
2022/06/04 08:52:28;;;;;;;8.88;4.43;;;;;;;30.68;nan;-24663.94;5052398;28;20170;-55
2022/06/04 08:57:46;;;;;;;5.57;4.55;;;;;;;31.06;nan;-24674.16;5052322;28;20275;-59
2022/06/04 09:00:19;;;;;;;6.13;4.30;;;;;;;31.23;nan;-24678.66;5052756;28;20714;-56
2022/06/04 09:03:06;;;;;;;6.32;4.50;;;;;;;31.55;nan;-24687.34;5052707;28;20642;-56
2022/06/04 09:05:50;;;;;;;5.07;4.38;;;;;;;31.85;nan;-24695.50;5052315;28;20162;-59
2022/06/04 09:08:39;;;;;;;5.20;3.97;;;;;;;32.22;nan;-24705.28;5052135;28;20209;-56
2022/06/04 09:11:11;;;;;;;6.50;4.32;;;;;;;32.47;nan;-24711.94;5052362;28;20630;-58
2022/06/04 09:13:46;;;;;;;7.57;3.67;;;;;;;32.78;nan;-24720.34;5052218;28;20277;-59
2022/06/04 09:16:29;;;;;;;6.13;4.20;;;;;;;32.23;nan;-24705.56;5052383;28;20172;-57
2022/06/04 09:19:00;;;;;;;6.28;4.03;;;;;;;31.33;nan;-24681.38;5051571;28;20198;-59
2022/06/04 09:21:35;;;;;;;6.10;4.05;;;;;;;31.47;nan;-24685.16;5051968;28;20181;-55
2022/06/04 09:24:01;;;;;;;5.00;3.95;;;;;;;31.54;nan;-24687.22;5051883;28;20162;-58
2022/06/04 09:26:56;;;;;;;6.45;3.92;;;;;;;32.34;nan;-24708.69;5051591;28;20180;-58
2022/06/04 09:29:53;;;;;;;8.27;4.20;;;;;;;31.45;nan;-24684.75;5051503;28;20194;-58
2022/06/04 09:32:27;;;;;;;6.05;3.80;;;;;;;31.58;nan;-24688.03;5051684;28;20170;-58
2022/06/04 09:34:55;;;;;;;5.30;3.88;;;;;;;31.97;nan;-24698.63;5051864;28;20170;-59
2022/06/04 09:37:20;;;;;;;5.10;3.85;;;;;;;31.98;nan;-24698.91;5050351;28;20202;-60
2022/06/04 09:40:01;;;;;;;7.65;3.88;;;;;;;31.37;nan;-24682.59;5051353;28;20177;-59
2022/06/04 09:42:31;;;;;;;5.55;3.53;;;;;;;31.24;nan;-24679.06;5051665;28;20225;-57
2022/06/04 09:44:56;;;;;;;5.60;3.70;;;;;;;31.30;nan;-24680.69;5051704;28;20170;-57
2022/06/04 09:47:30;;;;;;;4.75;3.50;;;;;;;31.21;nan;-24678.25;5051002;28;20177;-59
2022/06/04 09:50:00;;;;;;;7.95;3.28;;;;;;;31.61;nan;-24688.97;5051093;28;20305;-57
2022/06/04 09:52:37;;;;;;;5.85;3.70;;;;;;;31.99;nan;-24699.16;5049368;28;20239;-55
2022/06/04 09:55:16;;;;;;;3.95;3.10;;;;;;;31.83;nan;-24694.81;5051043;28;20168;-58
2022/06/04 09:57:42;;;;;;;3.58;2.90;;;;;;;31.90;nan;-24696.72;5050301;28;20205;-55
2022/06/04 10:00:20;;;;;;;4.35;3.03;;;;;;;32.06;nan;-24700.94;5050617;28;20556;-58
2022/06/04 10:03:00;;;;;;;4.72;2.90;;;;;;;32.04;nan;-24700.41;5051005;28;20174;-55
2022/06/04 10:05:30;;;;;;;5.82;3.00;;;;;;;31.86;nan;-24695.63;5051604;28;20173;-59
2022/06/04 10:07:56;;;;;;;3.60;2.90;;;;;;;31.84;nan;-24695.22;5051178;28;20726;-56
2022/06/04 10:10:27;;;;;;;3.45;2.83;;;;;;;32.14;nan;-24703.13;5050683;28;20611;-60
2022/06/04 10:15:44;;;;;;;5.07;3.47;;;;;;;32.74;nan;-24719.25;5051129;28;20185;-57
2022/06/04 10:18:16;;;;;;;5.55;3.63;;;;;;;32.86;nan;-24722.50;5051246;28;20209;-57
2022/06/04 10:20:50;;;;;;;6.47;3.22;;;;;;;32.66;nan;-24717.09;5051287;28;20182;-55
2022/06/04 10:23:16;;;;;;;3.90;3.17;;;;;;;32.49;nan;-24712.47;5051104;28;20169;-58
2022/06/04 10:25:58;;;;;;;7.10;3.63;;;;;;;32.46;nan;-24711.66;5050913;28;20249;-58
2022/06/04 10:28:48;;;;;;;5.00;3.60;;;;;;;32.27;nan;-24706.78;5051165;28;20214;-59
2022/06/04 10:31:21;;;;;;;5.38;3.88;;;;;;;32.66;nan;-24717.22;5051153;28;20174;-59
2022/06/04 10:34:06;;;;;;;6.22;3.38;;;;;;;32.63;nan;-24716.41;5051298;28;20204;-59
2022/06/04 10:36:45;;;;;;;5.75;3.67;;;;;;;32.91;nan;-24723.72;5083120;28;20261;-57
2022/06/04 10:39:16;;;;;;;5.07;3.20;;;;;;;32.91;nan;-24723.72;5052661;28;20685;-57
2022/06/04 10:41:51;;;;;;;7.32;3.83;;;;;;;32.92;nan;-24724.00;5051657;28;20194;-59
2022/06/04 10:44:47;;;;;;;4.88;3.50;;;;;;;32.71;nan;-24718.59;5053259;28;20181;-58
2022/06/04 10:47:40;;;;;;;5.90;3.58;;;;;;;32.74;nan;-24719.25;5050668;28;20218;-57
2022/06/04 10:50:16;;;;;;;7.90;3.53;;;;;;;32.51;nan;-24713.16;5048413;28;20182;-58
2022/06/04 10:53:12;;;;;;;3.88;3.40;;;;;;;32.51;nan;-24713.03;5050518;28;20664;-60
2022/06/04 10:55:49;;;;;;;3.65;3.10;;;;;;;31.81;nan;-24694.41;5050655;28;20313;-58
2022/06/04 10:58:24;;;;;;;6.38;3.65;;;;;;;31.38;nan;-24682.88;5051008;28;20182;-59
2022/06/04 11:00:59;;;;;;;5.35;3.53;;;;;;;31.40;nan;-24683.41;5053906;28;20546;-59
2022/06/04 11:03:35;;;;;;;5.10;3.30;;;;;;;31.47;nan;-24685.31;5054724;28;20212;-60
2022/06/04 11:06:26;;;;;;;4.05;3.55;;;;;;;31.52;nan;-24686.66;5054799;28;20178;-61
2022/06/04 11:09:13;;;;;;;4.88;3.35;;;;;;;31.67;nan;-24690.47;5057888;28;20193;-59
2022/06/04 11:11:47;;;;;;;4.15;3.60;;;;;;;31.67;nan;-24690.63;5058306;28;20178;-58
2022/06/04 11:14:43;;;;;;;5.07;3.33;;;;;;;31.25;nan;-24679.31;5059458;28;20701;-58
2022/06/04 11:17:21;;;;;;;4.45;3.38;;;;;;;31.07;nan;-24674.56;5040678;28;20261;-59
2022/06/04 11:20:13;;;;;;;4.35;3.38;;;;;;;30.96;nan;-24671.56;5059419;28;20645;-58
2022/06/04 11:22:44;;;;;;;4.22;3.35;;;;;;;31.10;nan;-24675.38;5063489;28;20181;-58
2022/06/04 11:25:25;;;;;;;5.95;3.50;;;;;;;31.65;nan;-24689.94;5055603;28;20276;-60
2022/06/04 11:27:58;;;;;;;5.35;3.30;;;;;;;31.63;nan;-24689.53;5052901;28;20174;-59
2022/06/04 11:30:29;;;;;;;4.57;3.28;;;;;;;31.37;nan;-24682.59;5056176;28;20178;-59
2022/06/04 11:33:17;;;;;;;3.42;2.97;;;;;;;31.45;nan;-24684.75;5059461;28;20271;-60
2022/06/04 11:36:24;;;;;;;8.13;3.10;;;;;;;31.17;nan;-24677.16;5060094;28;20235;-56
2022/06/04 11:39:10;;;;;;;4.40;3.60;;;;;;;31.12;nan;-24675.78;5059945;28;20304;-61
2022/06/04 11:42:05;;;;;;;4.88;3.08;;;;;;;31.37;nan;-24682.44;5058701;28;20296;-60
2022/06/04 11:44:46;;;;;;;5.05;3.60;;;;;;;32.16;nan;-24703.66;5059075;28;20197;-59
2022/06/04 11:47:36;;;;;;;3.67;3.28;;;;;;;32.15;nan;-24703.38;5055249;28;20291;-58
2022/06/04 11:50:13;;;;;;;5.10;3.20;;;;;;;32.17;nan;-24703.94;5059646;28;20178;-61
2022/06/04 11:53:11;;;;;;;4.63;3.60;;;;;;;31.42;nan;-24683.94;5060939;28;20178;-57
2022/06/04 11:55:50;;;;;;;5.97;3.60;;;;;;;30.92;nan;-24670.47;5059668;28;20225;-57
2022/06/04 11:58:34;;;;;;;4.10;3.33;;;;;;;31.24;nan;-24679.06;5052956;28;20202;-58
2022/06/04 12:01:06;;;;;;;6.38;3.83;;;;;;;31.12;nan;-24675.78;5058822;28;20185;-60
2022/06/04 12:03:42;;;;;;;4.82;3.70;;;;;;;30.81;nan;-24667.34;5056641;28;20225;-56
2022/06/04 12:06:23;;;;;;;5.03;3.50;;;;;;;31.08;nan;-24674.69;5054529;28;20177;-59
2022/06/04 12:09:06;;;;;;;4.28;3.65;;;;;;;31.01;nan;-24672.94;5052650;28;20189;-60
2022/06/04 12:11:36;;;;;;;4.00;3.38;;;;;;;31.30;nan;-24680.69;5061343;28;20188;-57
2022/06/04 12:14:12;;;;;;;5.50;3.53;;;;;;;30.96;nan;-24671.44;5055623;28;20221;-59
2022/06/04 12:16:46;;;;;;;6.75;3.83;;;;;;;31.21;nan;-24678.25;5057537;28;20204;-59